createdAt,value
2022-12-20T05:06:37.576Z,1.23
2022-12-20T05:12:40.299Z,1.42
2022-12-20T05:18:49.287Z,1.34
2022-12-20T05:25:11.377Z,1.38
2022-12-20T05:31:14.890Z,1.12
2022-12-20T05:37:18.612Z,1.13
2022-12-20T05:43:22.357Z,1.01
2022-12-20T05:49:25.224Z,1.24
2022-12-20T05:55:28.024Z,1.43
2022-12-20T06:01:30.171Z,1.53
2022-12-20T06:07:36.174Z,1.62
2022-12-20T06:13:40.719Z,1.75
2022-12-20T06:19:44.636Z,1.55
2022-12-20T06:25:51.344Z,1.64
2022-12-20T06:31:55.331Z,1.72
2022-12-20T06:37:57.854Z,1.63
2022-12-20T06:44:00.479Z,1.83
2022-12-20T06:50:06.968Z,1.88
2022-12-20T06:56:09.572Z,2.35
2022-12-20T07:02:13.987Z,1.87
2022-12-20T07:08:16.133Z,2.23
2022-12-20T07:14:18.802Z,2.56
2022-12-20T07:20:22.292Z,2.71
2022-12-20T07:26:24.400Z,2.75
2022-12-20T07:32:27.259Z,2.58
2022-12-20T07:38:30.252Z,2.29
2022-12-20T07:44:32.443Z,2.41
2022-12-20T07:50:36.187Z,2.66
2022-12-20T07:56:42.825Z,2.44
2022-12-20T08:03:08.907Z,2.44
2022-12-20T08:09:13.547Z,2.85
2022-12-20T08:15:18.289Z,2.92
2022-12-20T08:21:21.760Z,2.89
2022-12-20T08:27:25.216Z,3.34
2022-12-20T08:33:28.618Z,3.05
2022-12-20T08:39:31.747Z,3.51
2022-12-20T08:45:34.623Z,3.59
2022-12-20T08:51:39.245Z,3.63
2022-12-20T08:57:44.222Z,4.05
2022-12-20T09:03:49.432Z,4.35
2022-12-20T09:09:52.322Z,4.63
2022-12-20T09:15:55.300Z,4.83
2022-12-20T09:21:57.588Z,4.62
2022-12-20T09:27:59.932Z,4.98
2022-12-20T09:34:02.162Z,5.03
2022-12-20T09:40:04.835Z,5.02
2022-12-20T09:46:07.130Z,5.09
2022-12-20T09:52:24.446Z,4.64
2022-12-20T09:58:40.520Z,5.01
2022-12-20T10:04:42.804Z,5.63
2022-12-20T10:11:39.592Z,5.45
2022-12-20T10:17:47.224Z,4.87
2022-12-20T10:24:03.575Z,4.87
2022-12-20T10:30:14.346Z,5.68
2022-12-20T10:36:32.684Z,6.07
2022-12-20T10:42:43.376Z,5.87
2022-12-20T10:48:47.923Z,5.19
2022-12-20T10:54:50.876Z,5.14
2022-12-20T11:01:14.583Z,5.69
2022-12-20T11:07:27.205Z,5.38
2022-12-20T11:13:30.338Z,5.71
2022-12-20T11:19:38.628Z,5.59
2022-12-20T11:26:18.707Z,5.94
2022-12-20T11:32:44.598Z,6.65
2022-12-20T11:39:07.743Z,6.24
2022-12-20T11:45:24.500Z,5.66
2022-12-20T11:51:49.198Z,6.68
2022-12-20T12:04:25.438Z,6.96
2022-12-20T12:10:34.519Z,7.04
2022-12-20T12:16:43.411Z,6.67
2022-12-20T12:22:51.251Z,6.81
2022-12-20T12:28:59.603Z,7.00
2022-12-20T12:35:29.017Z,6.99
2022-12-20T12:41:43.212Z,6.82
2022-12-20T12:48:04.522Z,6.94
2022-12-20T12:54:10.897Z,6.33
2022-12-20T13:00:53.069Z,6.39
2022-12-20T13:06:59.685Z,6.34
2022-12-20T13:13:13.620Z,6.43
2022-12-20T13:19:36.130Z,6.44
2022-12-20T13:25:45.215Z,6.43
2022-12-20T13:31:54.400Z,6.32
2022-12-20T13:38:14.685Z,6.45
2022-12-20T13:44:18.996Z,6.21
2022-12-20T13:50:41.713Z,5.76
2022-12-20T13:56:49.577Z,5.58
2022-12-20T14:02:53.084Z,5.76
2022-12-20T14:08:56.671Z,5.76
2022-12-20T14:14:58.865Z,5.65
2022-12-20T14:21:07.924Z,5.75
2022-12-20T14:27:14.843Z,5.55
2022-12-20T14:33:34.023Z,5.46
2022-12-20T14:39:36.654Z,5.46
2022-12-20T14:45:38.920Z,5.15
2022-12-20T14:51:41.055Z,5.13
2022-12-20T14:57:54.922Z,4.89
2022-12-20T15:04:00.194Z,4.39
2022-12-20T15:10:03.204Z,4.28
2022-12-20T15:16:20.980Z,4.19
2022-12-20T15:22:23.318Z,4.33
2022-12-20T15:28:27.138Z,4.33
2022-12-20T15:34:34.076Z,4.25
2022-12-20T15:40:36.881Z,3.95
2022-12-20T15:46:39.064Z,3.90
2022-12-20T15:52:42.306Z,4.15
2022-12-20T15:58:44.768Z,4.12
2022-12-20T16:04:46.811Z,4.04
2022-12-20T16:10:51.726Z,4.06
2022-12-20T16:16:53.806Z,4.01
2022-12-20T16:22:56.001Z,3.78
2022-12-20T16:28:58.613Z,3.96
2022-12-20T16:35:00.719Z,3.88
2022-12-20T16:41:37.655Z,4.08
2022-12-20T16:47:40.846Z,4.05
2022-12-20T16:54:17.305Z,4.08
2022-12-20T17:00:10.338Z,4.02
2022-12-20T17:06:14.344Z,3.98
2022-12-20T17:12:20.127Z,4.07
2022-12-20T17:18:22.214Z,4.05
2022-12-20T17:24:25.084Z,3.99
2022-12-20T17:30:27.521Z,3.83
2022-12-20T17:36:37.474Z,3.78
2022-12-20T17:42:39.981Z,3.71
2022-12-20T17:48:43.913Z,3.27
2022-12-20T17:54:46.329Z,3.16
2022-12-20T18:00:48.527Z,3.02
2022-12-20T18:06:50.695Z,3.00
2022-12-20T18:12:52.859Z,3.03
2022-12-20T18:18:56.575Z,2.91
